Armona, California
Current Conditions -  °F | °C
As of 4:53 PM on Monday 26 Jan 2015 (Local Time) from KHJO Reporting Station
Haze Haze  
Wind Chill: 13°   Ceiling: Unl
Heat Index: 13°   Visibility: 4mi
Dew Point:   Wind: 5mph
Humidity: 77%   Direction: 260°W
Pressure: 30.01"   Gusts: NA
Location:  36.32°N, 119.71°W
Report Text: KHJO 270053Z AUTO 26004KT 4SM HZ CLR 13/09 A3001 RMK AO2 SLP165 T01280089
Loading
Personal Weather Stations






























Interactive Weather Map New forecast layout! Learn more

10-Day Weather Forecast

Advertisements
Track Severe Weather on mobile